createdAt,value
2018-11-21T00:03:41.203Z,0.59
2018-11-21T00:06:09.973Z,0.67
2018-11-21T00:08:38.306Z,0.58
2018-11-21T00:11:07.443Z,0.47
2018-11-21T00:13:54.711Z,0.46
2018-11-21T00:16:44.485Z,0.49
2018-11-21T00:19:13.129Z,0.51
2018-11-21T00:21:41.714Z,0.43
2018-11-21T00:24:10.282Z,0.50
2018-11-21T00:26:38.610Z,0.58
2018-11-21T00:29:25.944Z,0.54
2018-11-21T00:31:54.658Z,0.37
2018-11-21T00:34:42.206Z,0.38
2018-11-21T00:37:10.568Z,0.26
2018-11-21T00:39:38.967Z,0.34
2018-11-21T00:42:07.427Z,0.29
2018-11-21T00:44:35.803Z,0.31
2018-11-21T00:47:23.293Z,0.40
2018-11-21T00:49:51.954Z,0.39
2018-11-21T00:52:20.326Z,0.42
2018-11-21T00:55:07.654Z,0.51
2018-11-21T00:57:36.012Z,0.51
2018-11-21T01:00:04.581Z,0.45
2018-11-21T01:02:51.944Z,0.48
2018-11-21T01:05:39.541Z,0.46
2018-11-21T01:08:07.878Z,0.54
2018-11-21T01:10:36.627Z,0.58
2018-11-21T01:13:05.008Z,0.51
2018-11-21T01:15:33.351Z,0.52
2018-11-21T01:18:20.478Z,0.53
2018-11-21T01:21:07.750Z,0.50
2018-11-21T01:23:36.168Z,0.51
2018-11-21T01:26:23.462Z,0.46
2018-11-21T01:28:52.185Z,0.43
2018-11-21T01:33:55.159Z,0.42
2018-11-21T01:36:23.527Z,0.40
2018-11-21T01:39:11.317Z,0.41
2018-11-21T01:41:40.019Z,0.42
2018-11-21T01:44:08.814Z,0.41
2018-11-21T01:46:37.808Z,0.41
2018-11-21T01:49:06.252Z,0.42
2018-11-21T01:51:34.716Z,0.46
2018-11-21T01:54:21.848Z,0.48
2018-11-21T01:56:50.675Z,0.45
2018-11-21T01:59:38.113Z,0.38
2018-11-21T02:02:06.541Z,0.43
2018-11-21T02:04:53.625Z,0.41
2018-11-21T02:07:22.369Z,0.39
2018-11-21T02:09:50.706Z,0.37
2018-11-21T02:12:19.446Z,0.37
2018-11-21T02:15:06.733Z,0.35
2018-11-21T02:17:35.428Z,0.26
2018-11-21T02:20:03.837Z,0.35
2018-11-21T02:22:32.506Z,0.38
2018-11-21T02:25:01.527Z,0.34
2018-11-21T02:27:30.255Z,0.11
2018-11-21T02:29:58.639Z,0.18
2018-11-21T02:32:26.963Z,0.17
2018-11-21T02:35:14.510Z,0.16
2018-11-21T02:37:42.860Z,0.12
2018-11-21T02:40:11.232Z,0.22
2018-11-21T02:42:39.580Z,0.09
2018-11-21T02:45:08.072Z,0.12
2018-11-21T02:47:36.778Z,0.17
2018-11-21T02:50:05.221Z,0.21
2018-11-21T02:52:33.617Z,0.17
2018-11-21T02:55:21.201Z,0.23
2018-11-21T02:57:49.806Z,0.19
2018-11-21T03:00:19.730Z,0.06
2018-11-21T03:02:48.176Z,0.11
2018-11-21T03:05:16.974Z,0.06
2018-11-21T03:08:04.230Z,0.11
2018-11-21T03:10:32.578Z,0.12
2018-11-21T03:13:01.231Z,0.20
2018-11-21T03:15:29.624Z,0.19
2018-11-21T03:18:17.004Z,0.17
2018-11-21T03:21:04.082Z,0.14
2018-11-21T03:23:32.874Z,0.16
2018-11-21T03:26:01.168Z,0.11
2018-11-21T03:28:29.518Z,0.13
2018-11-21T03:30:58.194Z,0.13
2018-11-21T03:33:26.573Z,0.10
2018-11-21T03:35:55.293Z,-0.02
2018-11-21T03:38:23.692Z,-0.02
2018-11-21T03:40:52.074Z,0.05
2018-11-21T03:43:20.405Z,-0.02
2018-11-21T03:45:48.794Z,-0.05
2018-11-21T03:48:17.117Z,-0.03
2018-11-21T03:50:45.484Z,-0.03
2018-11-21T03:53:14.159Z,-0.02
2018-11-21T03:55:42.816Z,0.11
2018-11-21T03:58:11.211Z,0.05
2018-11-21T04:00:47.390Z,0.07
2018-11-21T04:03:16.045Z,0.07
2018-11-21T04:05:44.399Z,0.11
2018-11-21T04:08:31.731Z,-0.01
2018-11-21T04:11:00.046Z,0.03
2018-11-21T04:13:28.733Z,0.06
2018-11-21T04:15:57.921Z,0.03
2018-11-21T04:18:45.244Z,0.00
2018-11-21T04:21:14.319Z,-0.02
2018-11-21T04:24:01.581Z,0.06
2018-11-21T04:26:49.061Z,-0.01
2018-11-21T04:29:36.431Z,-0.02
2018-11-21T04:32:04.816Z,-0.08
2018-11-21T04:34:52.148Z,-0.04
2018-11-21T04:39:54.593Z,-0.17
2018-11-21T04:42:22.962Z,-0.15
2018-11-21T04:44:51.634Z,-0.19
2018-11-21T04:47:20.014Z,-0.19
2018-11-21T04:49:49.060Z,-0.26
2018-11-21T04:52:36.383Z,-0.28
2018-11-21T04:55:04.883Z,-0.26
2018-11-21T04:57:52.159Z,-0.38
2018-11-21T05:00:20.520Z,-0.38
2018-11-21T05:02:49.362Z,-0.39
2018-11-21T05:05:18.235Z,-0.49
2018-11-21T05:07:50.995Z,-0.49
2018-11-21T05:10:20.042Z,-0.45
2018-11-21T05:12:48.698Z,-0.40
2018-11-21T05:15:17.804Z,-0.42
2018-11-21T05:20:33.755Z,-0.42
2018-11-21T05:23:02.127Z,-0.42
2018-11-21T05:25:31.201Z,-0.38
2018-11-21T05:28:18.274Z,-0.36
2018-11-21T05:30:46.893Z,-0.35
2018-11-21T05:33:15.620Z,-0.30
2018-11-21T05:35:44.020Z,-0.42
2018-11-21T05:38:13.102Z,-0.58
2018-11-21T05:43:16.423Z,-0.62
2018-11-21T05:45:45.467Z,-0.62
2018-11-21T05:48:13.827Z,-0.56
2018-11-21T05:50:42.227Z,-0.56
2018-11-21T05:53:29.601Z,-0.54
2018-11-21T05:55:58.676Z,-0.60
2018-11-21T05:58:46.279Z,-0.58
2018-11-21T06:01:33.592Z,-0.58
2018-11-21T06:04:01.911Z,-0.59
2018-11-21T06:06:31.002Z,-0.64
2018-11-21T06:09:18.272Z,-0.55
2018-11-21T06:12:05.706Z,-0.68
2018-11-21T06:14:53.338Z,-0.70
2018-11-21T06:17:40.731Z,-0.71
2018-11-21T06:20:28.059Z,-0.68
2018-11-21T06:22:56.552Z,-0.78
2018-11-21T06:25:25.078Z,-0.79
2018-11-21T06:28:12.676Z,-0.67
2018-11-21T06:31:00.232Z,-0.60
2018-11-21T06:33:47.833Z,-0.63
2018-11-21T06:36:16.843Z,-0.63
2018-11-21T06:38:45.631Z,-0.58
2018-11-21T06:41:13.933Z,-0.64
2018-11-21T06:43:42.273Z,-0.67
2018-11-21T06:46:10.997Z,-0.71
2018-11-21T06:48:58.581Z,-0.60
2018-11-21T06:51:26.964Z,-0.59
2018-11-21T06:53:55.692Z,-0.60
2018-11-21T06:56:24.036Z,-0.57
2018-11-21T07:01:45.688Z,-0.47
2018-11-21T07:06:48.108Z,-0.31
2018-11-21T07:09:16.791Z,-0.18
2018-11-21T07:11:46.891Z,-0.12
2018-11-21T07:19:41.487Z,0.33
2018-11-21T07:22:10.098Z,0.52
2018-11-21T07:24:38.859Z,0.68
2018-11-21T07:27:07.550Z,0.83
2018-11-21T07:29:35.944Z,0.91
2018-11-21T07:32:23.195Z,1.09
2018-11-21T07:35:10.331Z,1.14
2018-11-21T07:37:39.435Z,1.25
2018-11-21T07:40:26.711Z,1.22
2018-11-21T07:43:14.000Z,1.46
2018-11-21T07:46:01.112Z,1.61
2018-11-21T07:48:29.446Z,1.65
2018-11-21T07:51:16.704Z,1.73
2018-11-21T07:53:45.392Z,1.87
2018-11-21T07:56:32.679Z,1.87
2018-11-21T07:59:20.132Z,2.01
2018-11-21T08:02:07.605Z,2.10
2018-11-21T08:04:55.077Z,2.07
2018-11-21T08:07:42.133Z,2.11
2018-11-21T08:10:19.582Z,2.34
2018-11-21T08:13:25.578Z,2.37
2018-11-21T08:16:06.499Z,2.68
2018-11-21T08:18:53.699Z,2.83
2018-11-21T08:21:40.809Z,2.75
2018-11-21T08:24:46.870Z,2.84
2018-11-21T08:27:33.971Z,2.89
2018-11-21T08:30:02.693Z,2.92
2018-11-21T08:32:31.034Z,3.12
2018-11-21T08:35:01.820Z,3.22
2018-11-21T08:37:48.918Z,3.26
2018-11-21T08:40:36.178Z,3.40
2018-11-21T08:43:04.563Z,3.59
2018-11-21T08:45:32.875Z,3.68
2018-11-21T08:50:36.290Z,3.78
2018-11-21T08:53:23.391Z,3.80
2018-11-21T08:55:51.734Z,4.00
2018-11-21T08:58:38.814Z,3.98
2018-11-21T09:03:55.547Z,4.17
2018-11-21T09:06:42.901Z,4.33
2018-11-21T09:09:30.039Z,4.36
2018-11-21T09:11:58.622Z,4.33
2018-11-21T09:14:45.907Z,4.29
2018-11-21T09:17:14.599Z,4.44
2018-11-21T09:19:42.990Z,4.55
2018-11-21T09:25:23.186Z,4.68
2018-11-21T09:27:51.643Z,4.80
2018-11-21T09:30:38.914Z,4.85
2018-11-21T09:33:07.600Z,4.88
2018-11-21T09:35:35.961Z,4.76
2018-11-21T09:38:04.361Z,4.84
2018-11-21T09:40:52.045Z,4.88
2018-11-21T09:43:39.649Z,5.08
2018-11-21T09:46:08.083Z,5.10
2018-11-21T09:48:55.200Z,5.12
2018-11-21T09:51:24.003Z,4.96
2018-11-21T09:53:52.823Z,5.11
2018-11-21T09:56:21.269Z,5.06
2018-11-21T09:59:08.375Z,5.16
2018-11-21T10:01:55.627Z,5.08
2018-11-21T10:04:23.989Z,5.13
2018-11-21T10:06:52.651Z,5.09
2018-11-21T10:09:42.887Z,5.16
2018-11-21T10:12:30.007Z,5.16
2018-11-21T10:15:17.098Z,5.11
2018-11-21T10:18:04.401Z,5.04
2018-11-21T10:20:33.033Z,5.13
2018-11-21T10:23:20.178Z,5.04
2018-11-21T10:25:48.478Z,5.08
2018-11-21T10:31:09.806Z,5.06
2018-11-21T10:33:56.919Z,5.09
2018-11-21T10:36:44.184Z,5.12
2018-11-21T10:39:31.443Z,4.98
2018-11-21T10:41:59.827Z,5.11
2018-11-21T10:44:46.975Z,5.19
2018-11-21T10:47:34.298Z,5.23
2018-11-21T10:50:21.541Z,5.32
2018-11-21T10:53:09.069Z,5.31
2018-11-21T10:55:56.186Z,5.39
2018-11-21T10:58:43.295Z,5.43
2018-11-21T11:01:49.350Z,5.44
2018-11-21T11:04:25.044Z,5.36
2018-11-21T11:07:12.638Z,5.30
2018-11-21T11:10:00.169Z,5.16
2018-11-21T11:12:47.174Z,5.22
2018-11-21T11:15:34.635Z,5.17
2018-11-21T11:18:21.722Z,5.12
2018-11-21T11:21:16.654Z,5.18
2018-11-21T11:24:03.801Z,5.26
2018-11-21T11:26:50.922Z,5.30
2018-11-21T11:29:38.425Z,5.34
2018-11-21T11:32:25.588Z,5.30
2018-11-21T11:35:13.060Z,5.18
2018-11-21T11:38:00.328Z,5.29
2018-11-21T11:40:47.438Z,5.30
2018-11-21T11:43:34.590Z,5.25
2018-11-21T11:46:40.630Z,5.23
2018-11-21T11:49:27.858Z,5.37
2018-11-21T11:52:33.929Z,5.31
2018-11-21T11:55:21.110Z,5.46
2018-11-21T11:58:08.289Z,5.48
2018-11-21T12:01:14.348Z,5.24
2018-11-21T12:04:01.615Z,5.25
2018-11-21T12:06:49.492Z,5.36
2018-11-21T12:09:36.626Z,5.29
2018-11-21T12:12:42.652Z,5.20
2018-11-21T12:15:29.830Z,5.30
2018-11-21T12:18:35.822Z,5.28
2018-11-21T12:21:41.873Z,5.14
2018-11-21T12:24:47.947Z,5.04
2018-11-21T12:27:34.538Z,4.96
2018-11-21T12:30:22.077Z,4.92
2018-11-21T12:33:09.273Z,4.94
2018-11-21T12:35:57.140Z,5.07
2018-11-21T12:38:44.938Z,5.07
2018-11-21T12:41:32.092Z,4.94
2018-11-21T12:44:19.343Z,4.81
2018-11-21T12:47:06.471Z,4.76
2018-11-21T12:49:53.625Z,4.78
2018-11-21T12:52:59.601Z,4.79
2018-11-21T12:56:05.723Z,4.73
2018-11-21T12:58:53.102Z,4.83
2018-11-21T13:01:40.287Z,4.76
2018-11-21T13:04:27.523Z,4.79
2018-11-21T13:07:15.061Z,4.90
2018-11-21T13:10:02.316Z,4.81
2018-11-21T13:12:49.409Z,4.72
2018-11-21T13:15:55.430Z,4.79
2018-11-21T13:18:42.942Z,4.79
2018-11-21T13:21:30.312Z,4.80
2018-11-21T13:24:17.378Z,4.81
2018-11-21T13:27:04.488Z,4.86
2018-11-21T13:29:51.888Z,4.95
2018-11-21T13:32:39.048Z,4.89
2018-11-21T13:35:45.091Z,5.01
2018-11-21T13:38:32.699Z,4.95
2018-11-21T13:41:38.694Z,4.99
2018-11-21T13:44:25.849Z,4.89
2018-11-21T13:47:13.111Z,4.83
2018-11-21T13:50:00.256Z,4.90
2018-11-21T13:52:47.367Z,4.67
2018-11-21T13:55:34.933Z,4.70
2018-11-21T13:58:03.804Z,4.58
2018-11-21T14:00:32.200Z,4.55
2018-11-21T14:03:00.622Z,4.51
2018-11-21T14:05:28.970Z,4.48
2018-11-21T14:07:57.756Z,4.45
2018-11-21T14:10:26.435Z,4.46
2018-11-21T14:15:28.391Z,4.31
2018-11-21T14:17:57.529Z,4.29
2018-11-21T14:20:44.230Z,4.26
2018-11-21T14:23:31.306Z,4.34
2018-11-21T14:26:00.262Z,4.37
2018-11-21T14:28:29.366Z,4.40
2018-11-21T14:31:16.948Z,4.33
2018-11-21T14:33:45.624Z,4.33
2018-11-21T14:36:14.331Z,4.23
2018-11-21T14:38:42.750Z,4.20
2018-11-21T14:41:30.002Z,4.21
2018-11-21T14:44:17.104Z,4.17
2018-11-21T14:46:46.505Z,4.08
2018-11-21T14:49:33.780Z,4.13
2018-11-21T14:54:49.798Z,4.01
2018-11-21T14:57:18.180Z,4.05
2018-11-21T14:59:46.553Z,4.04
2018-11-21T15:02:14.905Z,4.02
2018-11-21T15:07:49.550Z,3.89
2018-11-21T15:10:17.927Z,3.91
2018-11-21T15:18:14.994Z,3.93
2018-11-21T15:20:43.978Z,3.96
2018-11-21T15:23:12.721Z,3.95
2018-11-21T15:26:03.205Z,3.94
2018-11-21T15:28:33.969Z,3.99
2018-11-21T15:31:02.719Z,3.87
2018-11-21T15:33:50.048Z,3.91
2018-11-21T15:36:37.313Z,3.91
2018-11-21T15:39:07.991Z,3.89
2018-11-21T15:41:36.650Z,3.94
2018-11-21T15:44:05.397Z,3.90
2018-11-21T15:46:34.665Z,3.89
2018-11-21T15:49:03.058Z,3.91
2018-11-21T15:51:50.361Z,3.92
2018-11-21T15:54:18.734Z,3.91
2018-11-21T15:57:05.789Z,3.93
2018-11-21T15:59:53.359Z,3.99
2018-11-21T16:10:20.623Z,3.98
2018-11-21T16:12:49.467Z,3.92
2018-11-21T16:15:20.225Z,3.93
2018-11-21T16:17:48.832Z,3.92
2018-11-21T16:20:18.058Z,3.97
2018-11-21T16:23:05.178Z,4.04
2018-11-21T16:25:33.539Z,4.07
2018-11-21T16:28:01.975Z,4.08
2018-11-21T16:35:58.763Z,4.29
2018-11-21T16:38:27.702Z,4.27
2018-11-21T16:40:56.193Z,4.16
2018-11-21T16:43:24.560Z,4.22
2018-11-21T16:45:54.859Z,4.30
2018-11-21T16:48:42.178Z,4.32
2018-11-21T16:51:10.900Z,4.43
2018-11-21T16:53:39.284Z,4.51
2018-11-21T16:56:07.618Z,4.47
2018-11-21T16:58:36.049Z,4.41
2018-11-21T17:01:04.378Z,4.51
2018-11-21T17:03:33.117Z,4.54
2018-11-21T17:06:01.502Z,4.53
2018-11-21T17:08:29.834Z,4.59
2018-11-21T17:13:32.258Z,4.57
2018-11-21T17:16:00.581Z,4.58
2018-11-21T17:18:28.944Z,4.62
2018-11-21T17:21:16.023Z,4.68
2018-11-21T17:23:44.364Z,4.76
2018-11-21T17:26:12.699Z,4.85
2018-11-21T17:28:59.981Z,4.75
2018-11-21T17:36:36.437Z,4.78
2018-11-21T17:39:25.380Z,4.75
2018-11-21T17:41:54.162Z,4.79
2018-11-21T17:44:22.553Z,4.78
2018-11-21T17:47:10.054Z,4.78
2018-11-21T17:49:57.179Z,4.78
2018-11-21T17:54:59.959Z,4.68
2018-11-21T17:57:48.594Z,4.67
2018-11-21T18:00:18.606Z,4.74
2018-11-21T18:02:47.332Z,4.63
2018-11-21T18:05:17.228Z,4.52
2018-11-21T18:07:45.875Z,4.57
2018-11-21T18:10:16.114Z,4.50
2018-11-21T18:12:45.066Z,4.65
2018-11-21T18:15:14.126Z,4.59
2018-11-21T18:17:43.301Z,4.56
2018-11-21T18:30:33.143Z,4.49
2018-11-21T18:33:20.251Z,4.44
2018-11-21T18:35:48.581Z,4.63
2018-11-21T18:38:17.642Z,4.67
2018-11-21T18:40:46.444Z,4.72
2018-11-21T18:43:14.875Z,4.74
2018-11-21T18:45:44.687Z,4.81
2018-11-21T18:51:07.388Z,4.79
2018-11-21T18:53:55.020Z,4.81
2018-11-21T18:56:45.393Z,4.86
2018-11-21T18:59:29.643Z,4.67
2018-11-21T19:02:17.054Z,4.76
2018-11-21T19:05:04.532Z,4.71
2018-11-21T19:07:52.136Z,4.48
2018-11-21T19:10:39.603Z,4.52
2018-11-21T19:13:27.693Z,4.45
2018-11-21T19:15:56.461Z,4.43
2018-11-21T19:18:43.816Z,4.51
2018-11-21T19:21:31.125Z,4.46
2018-11-21T19:23:59.569Z,4.57
2018-11-21T19:26:27.972Z,4.64
2018-11-21T19:28:56.909Z,4.49
2018-11-21T19:31:29.570Z,4.56
2018-11-21T19:33:53.896Z,4.47
2018-11-21T19:36:23.066Z,4.26
2018-11-21T19:38:51.883Z,4.30
2018-11-21T19:41:20.296Z,4.25
2018-11-21T19:44:07.412Z,4.17
2018-11-21T19:46:36.118Z,4.22
2018-11-21T19:49:04.549Z,4.23
2018-11-21T19:51:32.922Z,4.13
2018-11-21T19:54:01.690Z,4.22
2018-11-21T19:56:49.011Z,4.28
2018-11-21T19:59:36.229Z,4.34
2018-11-21T20:02:04.613Z,4.14
2018-11-21T20:04:33.799Z,4.25
2018-11-21T20:07:21.590Z,4.32
2018-11-21T20:09:50.027Z,4.22
2018-11-21T20:15:22.216Z,4.33
2018-11-21T20:18:10.394Z,4.28
2018-11-21T20:20:39.427Z,4.45
2018-11-21T20:23:26.714Z,4.45
2018-11-21T20:28:46.226Z,4.38
2018-11-21T20:31:34.189Z,4.44
2018-11-21T20:34:03.033Z,4.52
2018-11-21T20:36:31.796Z,4.44
2018-11-21T20:39:00.678Z,4.41
2018-11-21T20:44:21.317Z,4.46
2018-11-21T20:52:36.124Z,4.43
2018-11-21T20:57:42.910Z,4.43
2018-11-21T21:03:01.173Z,4.41
2018-11-21T21:08:55.270Z,4.45
2018-11-21T21:11:43.410Z,4.47
2018-11-21T21:17:18.896Z,4.51
2018-11-21T21:20:06.162Z,4.49
2018-11-21T21:25:29.418Z,4.34
2018-11-21T21:27:58.264Z,4.38
2018-11-21T21:30:45.337Z,4.41
2018-11-21T21:33:32.948Z,4.44
2018-11-21T21:36:20.086Z,4.48
2018-11-21T21:39:07.223Z,4.46
2018-11-21T21:41:35.854Z,4.47
2018-11-21T21:44:04.176Z,4.53
2018-11-21T21:46:33.252Z,4.53
2018-11-21T21:49:01.649Z,4.42
2018-11-21T21:51:30.282Z,4.50
2018-11-21T21:54:17.863Z,4.46
2018-11-21T21:56:46.503Z,4.35
2018-11-21T21:59:14.892Z,4.43
2018-11-21T22:02:01.949Z,4.38
2018-11-21T22:04:49.311Z,4.34
2018-11-21T22:07:17.665Z,4.30
2018-11-21T22:12:15.233Z,4.32
2018-11-21T22:14:43.907Z,4.37
2018-11-21T22:17:31.404Z,4.45
2018-11-21T22:19:59.764Z,4.42
2018-11-21T22:22:28.167Z,4.47
2018-11-21T22:24:56.533Z,4.37
2018-11-21T22:27:43.602Z,4.42
2018-11-21T22:32:49.103Z,4.32
2018-11-21T22:35:18.864Z,4.43
2018-11-21T22:37:51.387Z,4.40
2018-11-21T22:40:34.458Z,4.35
2018-11-21T22:43:21.743Z,4.29
2018-11-21T22:45:50.069Z,4.29
2018-11-21T22:51:11.774Z,4.33
2018-11-21T22:53:40.123Z,4.41
2018-11-21T22:56:08.462Z,4.30
2018-11-21T22:58:36.803Z,4.37
2018-11-21T23:01:05.505Z,4.28
2018-11-21T23:03:33.875Z,4.33
2018-11-21T23:06:02.470Z,4.36
2018-11-21T23:08:30.850Z,4.35
2018-11-21T23:10:59.183Z,4.40
2018-11-21T23:13:46.454Z,4.43
2018-11-21T23:16:17.096Z,4.40
2018-11-21T23:19:04.224Z,4.38
2018-11-21T23:21:32.610Z,4.47
2018-11-21T23:24:01.764Z,4.45
2018-11-21T23:26:49.045Z,4.42
2018-11-21T23:31:52.446Z,4.32
2018-11-21T23:34:20.774Z,4.46
2018-11-21T23:37:08.226Z,4.35
2018-11-21T23:39:55.338Z,4.32
2018-11-21T23:42:42.788Z,4.42
2018-11-21T23:45:29.876Z,4.37
2018-11-21T23:48:17.305Z,4.40
2018-11-21T23:51:04.375Z,4.43
2018-11-21T23:53:32.774Z,4.48
2018-11-21T23:56:01.801Z,4.46
2018-11-21T23:58:30.240Z,4.36
